createdAt,value
2023-10-11T00:00:30.460Z,15.29
2023-10-11T00:01:32.107Z,15.28
2023-10-11T00:02:33.726Z,15.26
2023-10-11T00:03:35.652Z,15.26
2023-10-11T00:04:37.556Z,15.26
2023-10-11T00:05:42.224Z,15.27
2023-10-11T00:06:43.871Z,15.28
2023-10-11T00:07:45.570Z,15.34
2023-10-11T00:08:47.265Z,15.32
2023-10-11T00:09:53.139Z,15.32
2023-10-11T00:10:56.750Z,15.27
2023-10-11T00:11:58.478Z,15.27
2023-10-11T00:13:00.134Z,15.23
2023-10-11T00:14:01.821Z,15.21
2023-10-11T00:15:03.668Z,15.23
2023-10-11T00:16:10.136Z,15.23
2023-10-11T00:17:11.909Z,15.19
2023-10-11T00:18:13.606Z,15.14
2023-10-11T00:19:17.268Z,15.12
2023-10-11T00:20:29.519Z,15.08
2023-10-11T00:21:41.939Z,15.08
2023-10-11T00:22:43.718Z,15.10
2023-10-11T00:23:52.097Z,14.99
2023-10-11T00:24:53.918Z,14.99
2023-10-11T00:26:00.206Z,15.03
2023-10-11T00:27:01.890Z,15.06
2023-10-11T00:28:03.754Z,15.05
2023-10-11T00:29:05.805Z,15.04
2023-10-11T00:30:07.934Z,15.02
2023-10-11T00:31:20.411Z,14.95
2023-10-11T00:32:23.234Z,14.97
2023-10-11T00:33:38.200Z,14.98
2023-10-11T00:34:40.356Z,14.97
2023-10-11T00:35:49.320Z,14.96
2023-10-11T00:36:51.118Z,14.91
2023-10-11T00:37:54.237Z,14.95
2023-10-11T00:38:55.935Z,14.91
2023-10-11T00:39:57.599Z,14.92
2023-10-11T00:41:13.994Z,14.84
2023-10-11T00:42:15.662Z,14.76
2023-10-11T00:43:22.679Z,14.52
2023-10-11T00:44:24.300Z,14.78
2023-10-11T00:45:31.985Z,14.75
2023-10-11T00:46:51.536Z,14.72
2023-10-11T00:47:57.116Z,14.69
2023-10-11T00:49:06.378Z,14.54
2023-10-11T00:50:15.633Z,14.65
2023-10-11T00:51:18.088Z,14.57
2023-10-11T00:52:22.338Z,14.63
2023-10-11T00:53:27.894Z,14.65
2023-10-11T00:54:30.126Z,14.56
2023-10-11T00:55:32.494Z,14.61
2023-10-11T00:56:34.797Z,14.61
2023-10-11T00:57:38.027Z,14.62
2023-10-11T00:58:39.642Z,14.58
2023-10-11T00:59:41.853Z,14.48
2023-10-11T01:00:43.517Z,14.55
2023-10-11T01:01:46.496Z,14.55
2023-10-11T01:02:53.824Z,14.52
2023-10-11T01:03:56.521Z,14.47
2023-10-11T01:04:59.756Z,14.53
2023-10-11T01:06:01.762Z,14.48
2023-10-11T01:07:03.406Z,14.50
2023-10-11T01:08:05.390Z,14.47
2023-10-11T01:09:22.889Z,14.37
2023-10-11T01:10:25.222Z,14.44
2023-10-11T01:11:27.850Z,14.42
2023-10-11T01:12:29.606Z,14.40
2023-10-11T01:13:32.370Z,14.38
2023-10-11T01:14:46.299Z,14.35
2023-10-11T01:15:48.896Z,14.35
2023-10-11T01:16:53.134Z,14.39
2023-10-11T01:17:55.390Z,14.41
2023-10-11T01:18:57.141Z,14.39
2023-10-11T01:20:00.972Z,14.25
2023-10-11T01:21:06.930Z,14.35
2023-10-11T01:22:10.339Z,14.32
2023-10-11T01:23:11.895Z,14.37
2023-10-11T01:24:16.068Z,14.36
2023-10-11T01:25:20.089Z,14.46
2023-10-11T01:26:22.888Z,14.50
2023-10-11T01:27:31.211Z,14.46
2023-10-11T01:28:32.949Z,14.45
2023-10-11T01:29:34.561Z,14.46
2023-10-11T01:30:36.184Z,14.44
2023-10-11T01:31:39.244Z,14.42
2023-10-11T01:32:44.678Z,14.40
2023-10-11T01:33:51.028Z,14.39
2023-10-11T01:34:53.140Z,14.41
2023-10-11T01:35:54.830Z,14.43
2023-10-11T01:36:56.659Z,14.36
2023-10-11T01:37:58.502Z,14.45
2023-10-11T01:39:09.745Z,14.39
2023-10-11T01:40:14.477Z,14.36
2023-10-11T01:41:27.920Z,14.33
2023-10-11T01:42:29.503Z,14.32
2023-10-11T01:43:31.503Z,14.27
2023-10-11T01:44:35.177Z,14.23
2023-10-11T01:45:40.700Z,14.26
2023-10-11T01:46:42.960Z,14.14
2023-10-11T01:47:58.065Z,14.17
2023-10-11T01:49:00.039Z,14.18
2023-10-11T01:50:01.715Z,14.26
2023-10-11T01:51:09.171Z,14.24
2023-10-11T01:52:13.510Z,14.15
2023-10-11T01:53:15.788Z,14.17
2023-10-11T01:54:17.466Z,14.16
2023-10-11T01:55:19.153Z,14.17
2023-10-11T01:56:24.968Z,14.23
2023-10-11T01:57:26.612Z,14.29
2023-10-11T01:58:28.275Z,14.33
2023-10-11T01:59:30.175Z,14.25
2023-10-11T02:00:36.240Z,14.25
2023-10-11T02:01:41.507Z,14.30
2023-10-11T02:02:57.592Z,14.23
2023-10-11T02:04:01.553Z,14.27
2023-10-11T02:05:06.336Z,14.23
2023-10-11T02:06:08.632Z,14.25
2023-10-11T02:07:10.492Z,14.22
2023-10-11T02:08:13.436Z,14.26
2023-10-11T02:09:15.101Z,14.19
2023-10-11T02:10:26.562Z,14.20
2023-10-11T02:11:30.888Z,14.20
2023-10-11T02:12:32.626Z,14.20
2023-10-11T02:13:35.047Z,14.13
2023-10-11T02:14:38.592Z,14.13
2023-10-11T02:15:41.515Z,14.14
2023-10-11T02:16:43.168Z,14.12
2023-10-11T02:17:48.534Z,14.04
2023-10-11T02:18:59.834Z,13.97
2023-10-11T02:20:02.304Z,14.10
2023-10-11T02:21:10.092Z,14.11
2023-10-11T02:22:12.464Z,14.17
2023-10-11T02:23:14.145Z,14.13
2023-10-11T02:24:16.471Z,14.13
2023-10-11T02:25:25.779Z,14.14
2023-10-11T02:26:35.759Z,14.12
2023-10-11T02:27:37.736Z,14.21
2023-10-11T02:28:42.924Z,14.15
2023-10-11T02:29:45.995Z,13.93
2023-10-11T02:30:48.089Z,14.08
2023-10-11T02:31:54.122Z,14.05
2023-10-11T02:33:00.276Z,14.02
2023-10-11T02:34:14.719Z,14.04
2023-10-11T02:35:19.348Z,14.01
2023-10-11T02:36:21.072Z,14.01
2023-10-11T02:37:24.398Z,14.03
2023-10-11T02:38:27.077Z,14.00
2023-10-11T02:39:35.707Z,14.05
2023-10-11T02:40:39.262Z,14.02
2023-10-11T02:41:41.689Z,14.01
2023-10-11T02:42:50.556Z,14.04
2023-10-11T02:43:53.847Z,13.97
2023-10-11T02:44:55.467Z,14.01
2023-10-11T02:46:00.673Z,13.98
2023-10-11T02:47:02.412Z,13.93
2023-10-11T02:48:11.518Z,13.93
2023-10-11T02:49:22.593Z,13.99
2023-10-11T02:50:25.143Z,14.00
2023-10-11T02:51:26.781Z,14.03
2023-10-11T02:52:31.333Z,14.02
2023-10-11T02:53:37.435Z,13.98
2023-10-11T02:54:43.117Z,13.85
2023-10-11T02:55:44.977Z,13.95
2023-10-11T02:56:49.779Z,13.90
2023-10-11T02:58:11.652Z,13.90
2023-10-11T02:59:20.481Z,13.83
2023-10-11T03:00:24.965Z,13.86
2023-10-11T03:01:32.426Z,13.84
2023-10-11T03:02:39.968Z,13.89
2023-10-11T03:03:43.270Z,13.82
2023-10-11T03:04:45.077Z,13.77
2023-10-11T03:05:46.759Z,13.75
2023-10-11T03:06:50.761Z,13.79
2023-10-11T03:07:52.944Z,13.87
2023-10-11T03:08:54.759Z,13.87
2023-10-11T03:09:56.989Z,13.85
2023-10-11T03:10:58.868Z,13.84
2023-10-11T03:12:08.245Z,13.81
2023-10-11T03:13:10.042Z,13.75
2023-10-11T03:14:13.632Z,13.77
2023-10-11T03:15:20.690Z,13.77
2023-10-11T03:16:24.977Z,13.79
2023-10-11T03:17:26.618Z,13.83
2023-10-11T03:18:38.233Z,13.77
2023-10-11T03:19:43.437Z,13.76
2023-10-11T03:20:45.814Z,13.75
2023-10-11T03:21:48.208Z,13.77
2023-10-11T03:22:52.482Z,13.73
2023-10-11T03:23:56.983Z,13.69
2023-10-11T03:25:02.150Z,13.70
2023-10-11T03:26:09.699Z,13.74
2023-10-11T03:27:11.638Z,13.73
2023-10-11T03:28:16.335Z,13.78
2023-10-11T03:29:22.679Z,13.75
2023-10-11T03:30:25.875Z,13.72
2023-10-11T03:31:29.667Z,13.78
2023-10-11T03:32:31.568Z,13.70
2023-10-11T03:33:33.589Z,13.70
2023-10-11T03:34:35.348Z,13.77
2023-10-11T03:35:39.742Z,13.76
2023-10-11T03:36:52.467Z,13.71
2023-10-11T03:37:59.755Z,13.70
2023-10-11T03:39:11.056Z,13.71
2023-10-11T03:40:28.612Z,13.69
2023-10-11T03:41:30.287Z,13.67
2023-10-11T03:42:54.775Z,13.69
2023-10-11T03:44:01.955Z,13.69
2023-10-11T03:45:07.434Z,13.71
2023-10-11T03:46:16.561Z,13.72
2023-10-11T03:47:26.051Z,13.68
2023-10-11T03:48:29.614Z,13.69
2023-10-11T03:49:31.591Z,13.68
2023-10-11T03:50:36.042Z,13.69
2023-10-11T03:51:37.738Z,13.70
2023-10-11T03:52:41.427Z,13.69
2023-10-11T03:53:43.067Z,13.68
2023-10-11T03:54:46.406Z,13.69
2023-10-11T03:55:48.873Z,13.68
2023-10-11T03:56:55.412Z,13.69
2023-10-11T03:57:57.075Z,13.66
2023-10-11T03:59:01.595Z,13.66
2023-10-11T04:00:23.729Z,13.61
2023-10-11T04:01:25.856Z,13.69
2023-10-11T04:02:27.841Z,13.66
2023-10-11T04:03:29.621Z,13.67
2023-10-11T04:04:31.789Z,13.68
2023-10-11T04:05:37.131Z,13.66
2023-10-11T04:06:38.943Z,13.69
2023-10-11T04:07:41.296Z,13.69
2023-10-11T04:09:03.790Z,13.65
2023-10-11T04:10:10.939Z,13.62
2023-10-11T04:11:19.943Z,13.65
2023-10-11T04:12:25.962Z,13.66
2023-10-11T04:13:27.677Z,13.70
2023-10-11T04:14:41.649Z,13.76
2023-10-11T04:15:43.761Z,13.80
2023-10-11T04:16:46.216Z,13.80
2023-10-11T04:17:50.655Z,13.82
2023-10-11T04:18:54.919Z,13.89
2023-10-11T04:20:16.509Z,13.89
2023-10-11T04:21:27.453Z,13.88
2023-10-11T04:22:32.637Z,13.90
2023-10-11T04:23:36.989Z,13.88
2023-10-11T04:24:40.085Z,13.95
2023-10-11T04:25:44.737Z,13.92
2023-10-11T04:27:16.401Z,13.93
2023-10-11T04:28:17.855Z,13.89
2023-10-11T04:29:19.973Z,13.87
2023-10-11T04:30:28.614Z,13.91
2023-10-11T04:31:33.938Z,13.92
2023-10-11T04:32:47.099Z,13.93
2023-10-11T04:33:52.280Z,13.91
2023-10-11T04:34:56.966Z,13.90
2023-10-11T04:35:59.283Z,13.95
2023-10-11T04:37:06.261Z,13.91
2023-10-11T04:38:08.052Z,13.99
2023-10-11T04:39:17.338Z,14.05
2023-10-11T04:40:39.806Z,14.08
2023-10-11T04:41:50.451Z,14.11
2023-10-11T04:43:05.824Z,14.13
2023-10-11T04:44:14.591Z,14.13
2023-10-11T04:45:24.377Z,14.16
2023-10-11T04:46:32.087Z,14.16
2023-10-11T04:47:52.562Z,14.22
2023-10-11T04:49:04.397Z,14.23
2023-10-11T04:50:12.755Z,14.26
2023-10-11T04:51:25.130Z,14.32
2023-10-11T04:52:36.505Z,14.35
2023-10-11T04:53:57.425Z,14.39
2023-10-11T04:54:59.056Z,14.39
2023-10-11T04:56:00.632Z,14.41
2023-10-11T04:57:08.300Z,14.45
2023-10-11T04:58:09.968Z,14.46
2023-10-11T04:59:31.593Z,14.52
2023-10-11T05:00:45.267Z,14.52
2023-10-11T05:01:47.230Z,14.61
2023-10-11T05:02:55.886Z,14.63
2023-10-11T05:04:00.713Z,14.65
2023-10-11T05:05:06.437Z,14.65
2023-10-11T05:06:15.543Z,14.66
2023-10-11T05:07:21.186Z,14.73
2023-10-11T05:08:25.586Z,14.77
2023-10-11T05:09:53.117Z,14.77
2023-10-11T05:10:56.329Z,14.83
2023-10-11T05:12:07.184Z,14.79
2023-10-11T05:13:14.465Z,14.88
2023-10-11T05:14:31.592Z,14.90
2023-10-11T05:15:44.064Z,14.93
2023-10-11T05:16:46.373Z,14.96
2023-10-11T05:18:00.565Z,14.96
2023-10-11T05:19:06.668Z,14.99
2023-10-11T05:20:09.953Z,14.96
2023-10-11T05:21:16.062Z,15.02
2023-10-11T05:22:29.745Z,15.05
2023-10-11T05:23:53.895Z,15.05
2023-10-11T05:25:02.389Z,15.07
2023-10-11T05:26:23.944Z,15.07
2023-10-11T05:27:45.843Z,15.14
2023-10-11T05:29:00.309Z,15.15
2023-10-11T05:30:13.394Z,15.17
2023-10-11T05:31:15.166Z,15.13
2023-10-11T05:32:24.816Z,15.14
2023-10-11T05:33:42.969Z,15.15
2023-10-11T05:34:52.074Z,15.19
2023-10-11T05:36:12.308Z,15.21
2023-10-11T05:37:32.089Z,15.21
2023-10-11T05:38:51.967Z,15.21
2023-10-11T05:40:11.885Z,15.22
2023-10-11T05:41:34.010Z,15.20
2023-10-11T05:43:10.674Z,15.16
2023-10-11T05:44:31.031Z,15.08
2023-10-11T05:45:51.007Z,15.08
2023-10-11T05:47:10.943Z,15.05
2023-10-11T05:48:30.975Z,15.09
2023-10-11T05:49:51.843Z,15.05
2023-10-11T05:50:56.709Z,15.09
2023-10-11T05:51:58.862Z,14.96
2023-10-11T05:53:00.443Z,15.11
2023-10-11T05:54:06.680Z,15.06
2023-10-11T05:55:08.855Z,15.04
2023-10-11T05:56:10.512Z,15.00
2023-10-11T05:57:15.075Z,14.97
2023-10-11T05:58:17.137Z,15.01
2023-10-11T05:59:18.888Z,15.00
2023-10-11T06:00:27.442Z,15.10
2023-10-11T06:01:29.145Z,15.20
2023-10-11T06:02:30.836Z,15.23
2023-10-11T06:03:36.610Z,15.24
2023-10-11T06:04:40.802Z,15.28
2023-10-11T06:05:42.611Z,15.22
2023-10-11T06:06:47.076Z,15.27
2023-10-11T06:08:01.903Z,15.08
2023-10-11T06:09:06.540Z,15.11
2023-10-11T06:10:09.777Z,15.15
2023-10-11T06:11:13.940Z,15.19
2023-10-11T06:12:24.776Z,15.19
2023-10-11T06:13:26.674Z,15.12
2023-10-11T06:14:28.276Z,14.99
2023-10-11T06:15:35.997Z,14.84
2023-10-11T06:16:40.816Z,14.91
2023-10-11T06:17:50.438Z,15.06
2023-10-11T06:18:58.542Z,15.11
2023-10-11T06:20:18.530Z,15.17
2023-10-11T06:21:25.478Z,15.23
2023-10-11T06:22:29.904Z,15.22
2023-10-11T06:23:31.966Z,15.27
2023-10-11T06:24:38.310Z,15.26
2023-10-11T06:25:51.894Z,15.13
2023-10-11T06:26:53.934Z,15.16
2023-10-11T06:27:58.155Z,15.20
2023-10-11T06:29:08.620Z,15.27
2023-10-11T06:30:11.606Z,15.37
2023-10-11T06:31:15.821Z,15.46
2023-10-11T06:32:21.525Z,15.57
2023-10-11T06:33:24.021Z,15.72
2023-10-11T06:34:25.650Z,15.66
2023-10-11T06:35:27.268Z,15.91
2023-10-11T06:36:31.323Z,16.01
2023-10-11T06:37:36.305Z,16.06
2023-10-11T06:38:42.777Z,16.20
2023-10-11T06:39:44.918Z,16.21
2023-10-11T06:41:09.574Z,16.31
2023-10-11T06:42:24.801Z,16.42
2023-10-11T06:43:27.292Z,16.41
2023-10-11T06:44:28.984Z,16.44
2023-10-11T06:45:30.720Z,16.51
2023-10-11T06:46:32.408Z,16.54
2023-10-11T06:47:37.370Z,16.35
2023-10-11T06:48:39.493Z,16.36
2023-10-11T06:50:53.766Z,16.39
2023-10-11T06:51:55.462Z,16.31
2023-10-11T06:52:57.044Z,16.21
2023-10-11T06:53:58.723Z,16.29
2023-10-11T06:55:15.504Z,16.41
2023-10-11T06:56:18.364Z,16.47
2023-10-11T06:57:22.660Z,16.62
2023-10-11T06:58:24.531Z,16.69
2023-10-11T06:59:29.215Z,16.73
2023-10-11T07:00:38.276Z,16.76
2023-10-11T07:01:42.535Z,16.77
2023-10-11T07:02:49.038Z,16.86
2023-10-11T07:03:53.530Z,16.91
2023-10-11T07:04:55.226Z,16.98
2023-10-11T07:06:01.793Z,17.02
2023-10-11T07:07:08.566Z,17.06
2023-10-11T07:08:11.377Z,17.05
2023-10-11T07:09:22.119Z,17.08
2023-10-11T07:10:30.057Z,17.08
2023-10-11T07:11:51.693Z,17.12
2023-10-11T07:13:06.553Z,17.15
2023-10-11T07:14:15.718Z,17.26
2023-10-11T07:15:17.381Z,17.31
2023-10-11T07:16:29.483Z,17.36
2023-10-11T07:17:33.446Z,17.41
2023-10-11T07:18:41.152Z,17.42
2023-10-11T07:19:42.891Z,17.46
2023-10-11T07:20:50.813Z,17.48
2023-10-11T07:21:55.352Z,17.51
2023-10-11T07:22:58.195Z,17.61
2023-10-11T07:24:06.054Z,17.66
2023-10-11T07:25:27.944Z,17.64
2023-10-11T07:26:32.774Z,17.74
2023-10-11T07:27:41.363Z,17.82
2023-10-11T07:28:42.966Z,17.92
2023-10-11T07:29:50.590Z,17.96
2023-10-11T07:30:52.733Z,17.88
2023-10-11T07:31:54.621Z,17.90
2023-10-11T07:32:56.445Z,17.95
2023-10-11T07:33:58.666Z,17.97
2023-10-11T07:35:06.771Z,18.04
2023-10-11T07:36:13.221Z,18.11
2023-10-11T07:37:19.261Z,18.16
2023-10-11T07:38:22.316Z,18.18
2023-10-11T07:39:35.029Z,18.24
2023-10-11T07:40:47.173Z,18.32
2023-10-11T07:41:53.513Z,18.34
2023-10-11T07:42:56.287Z,18.40
2023-10-11T07:44:01.809Z,18.48
2023-10-11T07:45:08.931Z,18.49
2023-10-11T07:46:10.706Z,18.53
2023-10-11T07:47:19.823Z,18.54
2023-10-11T07:48:21.737Z,18.60
2023-10-11T07:49:26.629Z,18.64
2023-10-11T07:50:28.214Z,18.61
2023-10-11T07:51:31.325Z,18.62
2023-10-11T07:52:35.088Z,18.68
2023-10-11T07:53:44.479Z,18.73
2023-10-11T07:54:46.505Z,18.75
2023-10-11T07:55:48.081Z,18.72
2023-10-11T07:56:53.947Z,18.77
2023-10-11T07:58:01.317Z,18.69
2023-10-11T07:59:13.456Z,18.72
2023-10-11T08:00:19.596Z,18.77
2023-10-11T08:01:31.737Z,18.76
2023-10-11T08:02:43.128Z,18.80
2023-10-11T08:03:47.616Z,18.85
2023-10-11T08:04:52.097Z,18.88
2023-10-11T08:05:55.327Z,18.89
2023-10-11T08:07:06.599Z,18.91
2023-10-11T08:08:11.365Z,18.93
2023-10-11T08:09:24.927Z,18.94
2023-10-11T08:10:35.729Z,18.90
2023-10-11T08:11:46.777Z,18.93
2023-10-11T08:12:48.416Z,18.95
2023-10-11T08:13:50.705Z,18.99
2023-10-11T08:14:55.107Z,18.95
2023-10-11T08:15:59.558Z,18.95
2023-10-11T08:17:01.433Z,18.99
2023-10-11T08:18:03.081Z,18.97
2023-10-11T08:19:06.106Z,19.01
2023-10-11T08:20:10.678Z,19.04
2023-10-11T08:21:14.184Z,19.07
2023-10-11T08:22:17.203Z,19.08
2023-10-11T08:23:30.918Z,19.14
2023-10-11T08:24:41.413Z,19.18
2023-10-11T08:25:50.431Z,19.19
2023-10-11T08:26:53.801Z,19.17
2023-10-11T08:28:13.383Z,19.16
2023-10-11T08:29:33.711Z,19.22
2023-10-11T08:30:40.126Z,19.28
2023-10-11T08:31:44.930Z,19.21
2023-10-11T08:32:49.434Z,19.33
2023-10-11T08:33:51.253Z,19.36
2023-10-11T08:34:55.599Z,19.35
2023-10-11T08:35:57.915Z,19.43
2023-10-11T08:37:02.175Z,19.51
2023-10-11T08:38:06.037Z,19.59
2023-10-11T08:39:09.990Z,19.60
2023-10-11T08:40:21.884Z,19.64
2023-10-11T08:41:24.048Z,19.63
2023-10-11T08:42:32.193Z,19.67
2023-10-11T08:43:37.877Z,19.71
2023-10-11T08:44:45.657Z,19.79
2023-10-11T08:46:00.204Z,19.85
2023-10-11T08:47:07.522Z,19.92
2023-10-11T08:48:09.861Z,19.96
2023-10-11T08:49:11.798Z,20.02
2023-10-11T08:50:19.233Z,20.01
2023-10-11T08:51:23.793Z,19.98
2023-10-11T08:52:31.996Z,19.98
2023-10-11T08:53:36.175Z,20.08
2023-10-11T08:54:39.663Z,20.15
2023-10-11T08:55:41.947Z,20.21
2023-10-11T08:56:55.917Z,20.18
2023-10-11T08:57:57.954Z,20.16
2023-10-11T08:59:05.557Z,20.21
2023-10-11T09:00:19.594Z,20.20
2023-10-11T09:01:27.445Z,20.21
2023-10-11T09:02:30.754Z,20.27
2023-10-11T09:03:41.493Z,20.37
2023-10-11T09:05:22.218Z,20.50
2023-10-11T09:06:24.417Z,20.62
2023-10-11T09:07:40.858Z,20.68
2023-10-11T09:08:42.416Z,20.77
2023-10-11T09:09:46.298Z,20.84
2023-10-11T09:10:50.650Z,20.90
2023-10-11T09:11:55.641Z,20.97
2023-10-11T09:12:59.095Z,21.03
2023-10-11T09:14:24.086Z,21.02
2023-10-11T09:15:44.034Z,20.82
2023-10-11T09:16:45.887Z,20.74
2023-10-11T09:17:51.895Z,20.84
2023-10-11T09:19:12.526Z,20.88
2023-10-11T09:20:17.134Z,20.94
2023-10-11T09:21:19.547Z,20.92
2023-10-11T09:22:22.640Z,21.01
2023-10-11T09:23:37.625Z,21.06
2023-10-11T09:24:44.694Z,21.15
2023-10-11T09:25:59.371Z,21.22
2023-10-11T09:27:19.430Z,21.45
2023-10-11T09:28:23.359Z,21.52
2023-10-11T09:29:26.414Z,21.70
2023-10-11T09:30:28.495Z,21.95
2023-10-11T09:31:32.946Z,22.21
2023-10-11T09:32:35.324Z,22.40
2023-10-11T09:34:07.608Z,22.80
2023-10-11T09:35:27.806Z,23.29
2023-10-11T09:36:29.918Z,23.49
2023-10-11T09:37:35.617Z,23.52
2023-10-11T09:38:40.373Z,23.65
2023-10-11T09:39:43.644Z,23.79
2023-10-11T09:40:45.281Z,24.01
2023-10-11T09:41:53.759Z,24.23
2023-10-11T09:43:03.362Z,24.53
2023-10-11T09:44:05.381Z,24.81
2023-10-11T09:45:08.307Z,24.78
2023-10-11T09:46:12.861Z,25.12
2023-10-11T09:47:18.711Z,25.38
2023-10-11T09:48:23.549Z,25.53
2023-10-11T09:49:27.315Z,25.72
2023-10-11T09:50:30.423Z,25.75
2023-10-11T09:51:33.070Z,25.88
2023-10-11T09:52:35.549Z,25.86
2023-10-11T09:53:43.319Z,25.84
2023-10-11T09:54:46.758Z,25.81
2023-10-11T09:56:02.593Z,25.82
2023-10-11T09:57:22.516Z,26.13
2023-10-11T09:58:42.664Z,26.32
2023-10-11T10:00:09.738Z,26.08
2023-10-11T10:01:22.319Z,25.81
2023-10-11T10:02:30.307Z,25.58
2023-10-11T10:03:32.672Z,25.40
2023-10-11T10:05:05.939Z,25.60
2023-10-11T10:06:20.379Z,25.92
2023-10-11T10:07:40.926Z,26.37
2023-10-11T10:08:49.060Z,26.75
2023-10-11T10:09:58.052Z,27.07
2023-10-11T10:11:03.380Z,27.20
2023-10-11T10:12:07.619Z,27.30
2023-10-11T10:13:11.002Z,27.34
2023-10-11T10:14:25.496Z,27.67
2023-10-11T10:15:35.166Z,27.77
2023-10-11T10:17:12.369Z,27.94
2023-10-11T10:18:20.999Z,28.04
2023-10-11T10:19:26.293Z,28.10
2023-10-11T10:20:34.496Z,28.27
2023-10-11T10:22:16.112Z,28.42
2023-10-11T10:23:17.586Z,28.28
2023-10-11T10:24:31.445Z,27.68
2023-10-11T10:25:33.157Z,27.53
2023-10-11T10:26:39.626Z,26.80
2023-10-11T10:27:42.525Z,25.96
2023-10-11T10:28:46.996Z,26.03
2023-10-11T10:29:56.900Z,26.10
2023-10-11T10:31:26.307Z,26.05
2023-10-11T10:32:28.568Z,25.80
2023-10-11T10:33:30.434Z,25.83
2023-10-11T10:34:32.117Z,25.97
2023-10-11T10:35:39.363Z,26.24
2023-10-11T10:36:42.246Z,26.18
2023-10-11T10:37:58.022Z,26.19
2023-10-11T10:38:59.986Z,26.27
2023-10-11T10:40:28.110Z,26.23
2023-10-11T10:41:34.711Z,26.14
2023-10-11T10:42:36.768Z,26.38
2023-10-11T10:43:40.853Z,26.52
2023-10-11T10:44:53.362Z,26.71
2023-10-11T10:46:04.249Z,26.62
2023-10-11T10:47:07.270Z,26.68
2023-10-11T10:48:15.490Z,26.94
2023-10-11T10:49:21.127Z,27.01
2023-10-11T10:50:22.970Z,26.77
2023-10-11T10:51:31.497Z,26.89
2023-10-11T10:52:33.227Z,26.88
2023-10-11T10:53:38.498Z,27.02
2023-10-11T10:54:40.113Z,27.15
2023-10-11T10:55:45.827Z,27.15
2023-10-11T10:56:59.119Z,27.12
2023-10-11T10:58:00.695Z,27.16
2023-10-11T10:59:12.828Z,27.18
2023-10-11T11:00:24.833Z,27.22
2023-10-11T11:01:29.630Z,26.98
2023-10-11T11:02:37.225Z,26.82
2023-10-11T11:03:42.972Z,27.07
2023-10-11T11:04:45.269Z,27.22
2023-10-11T11:06:01.179Z,27.34
2023-10-11T11:07:04.954Z,27.43
2023-10-11T11:08:25.078Z,27.57
2023-10-11T11:09:27.354Z,27.13
2023-10-11T11:10:32.207Z,27.00
2023-10-11T11:11:36.548Z,26.67
2023-10-11T11:12:42.187Z,26.63
2023-10-11T11:13:44.254Z,26.60
2023-10-11T11:14:55.790Z,26.52
2023-10-11T11:15:58.018Z,26.39
2023-10-11T11:17:01.651Z,26.45
2023-10-11T11:18:03.806Z,26.38
2023-10-11T11:19:20.294Z,26.32
2023-10-11T11:20:30.768Z,26.32
2023-10-11T11:21:32.468Z,26.18
2023-10-11T11:22:41.149Z,26.07
2023-10-11T11:23:45.490Z,26.11
2023-10-11T11:24:53.736Z,25.63
2023-10-11T11:25:55.542Z,25.43
2023-10-11T11:26:57.506Z,25.02
2023-10-11T11:28:06.361Z,25.00
2023-10-11T11:29:18.171Z,24.95
2023-10-11T11:30:35.000Z,24.70
2023-10-11T11:31:53.789Z,24.39
2023-10-11T11:32:55.975Z,23.97
2023-10-11T11:34:14.492Z,23.40
2023-10-11T11:35:32.605Z,23.40
2023-10-11T11:36:36.269Z,23.40
2023-10-11T11:38:02.738Z,23.46
2023-10-11T11:39:27.847Z,23.56
2023-10-11T11:40:37.986Z,23.55
2023-10-11T11:41:40.602Z,23.49
2023-10-11T11:42:49.777Z,23.38
2023-10-11T11:43:51.521Z,23.33
2023-10-11T11:44:56.700Z,23.17
2023-10-11T11:46:03.061Z,23.11
2023-10-11T11:47:07.626Z,23.07
2023-10-11T11:48:09.451Z,23.04
2023-10-11T11:49:11.051Z,22.98
2023-10-11T11:50:19.562Z,22.97
2023-10-11T11:51:21.165Z,23.02
2023-10-11T11:52:23.405Z,23.07
2023-10-11T11:53:25.737Z,23.06
2023-10-11T11:54:29.852Z,23.01
2023-10-11T11:55:33.668Z,23.04
2023-10-11T11:56:35.542Z,23.02
2023-10-11T11:57:37.298Z,22.96
2023-10-11T11:58:47.717Z,22.87
2023-10-11T11:59:49.290Z,22.81
2023-10-11T12:01:09.535Z,22.79
2023-10-11T12:02:18.364Z,22.69
2023-10-11T12:03:26.787Z,22.50
2023-10-11T12:04:34.003Z,22.27
2023-10-11T12:05:42.269Z,22.22
2023-10-11T12:06:44.128Z,22.10
2023-10-11T12:07:45.819Z,22.13
2023-10-11T12:08:47.480Z,22.04
2023-10-11T12:10:02.415Z,22.07
2023-10-11T12:11:06.425Z,22.03
2023-10-11T12:12:08.313Z,21.95
2023-10-11T12:13:10.548Z,21.87
2023-10-11T12:14:14.090Z,21.79
2023-10-11T12:15:17.967Z,21.72
2023-10-11T12:16:23.948Z,21.59
2023-10-11T12:17:27.011Z,21.47
2023-10-11T12:18:34.878Z,21.43
2023-10-11T12:19:38.130Z,21.32
2023-10-11T12:20:39.776Z,21.24
2023-10-11T12:21:41.403Z,21.30
2023-10-11T12:22:46.396Z,21.27
2023-10-11T12:23:48.827Z,21.27
2023-10-11T12:24:50.777Z,21.13
2023-10-11T12:25:52.739Z,21.09
2023-10-11T12:27:02.062Z,20.97
2023-10-11T12:28:05.590Z,21.06
2023-10-11T12:29:10.144Z,21.01
2023-10-11T12:30:21.537Z,21.08
2023-10-11T12:31:23.370Z,21.17
2023-10-11T12:32:32.562Z,21.08
2023-10-11T12:33:34.522Z,20.97
2023-10-11T12:34:36.216Z,21.07
2023-10-11T12:35:41.393Z,21.02
2023-10-11T12:36:43.723Z,20.90
2023-10-11T12:37:45.477Z,20.87
2023-10-11T12:38:50.349Z,20.90
2023-10-11T12:39:55.007Z,20.87
2023-10-11T12:40:56.666Z,20.71
2023-10-11T12:42:00.718Z,20.77
2023-10-11T12:43:08.813Z,20.83
2023-10-11T12:44:15.397Z,20.84
2023-10-11T12:45:18.644Z,20.86
2023-10-11T12:46:21.384Z,20.86
2023-10-11T12:47:23.373Z,20.83
2023-10-11T12:48:26.128Z,20.87
2023-10-11T12:49:29.125Z,20.82
2023-10-11T12:50:31.433Z,20.72
2023-10-11T12:51:34.704Z,20.72
2023-10-11T12:52:39.443Z,20.72
2023-10-11T12:53:41.125Z,20.67
2023-10-11T12:54:43.030Z,20.65
2023-10-11T12:55:46.773Z,20.68
2023-10-11T12:56:48.486Z,20.60
2023-10-11T12:57:50.154Z,20.62
2023-10-11T12:58:54.168Z,20.72
2023-10-11T12:59:55.889Z,20.70
2023-10-11T13:01:00.635Z,20.63
2023-10-11T13:02:05.296Z,20.64
2023-10-11T13:03:27.742Z,20.58
2023-10-11T13:04:32.522Z,20.54
2023-10-11T13:05:34.270Z,20.63
2023-10-11T13:06:40.289Z,20.72
2023-10-11T13:07:43.376Z,20.71
2023-10-11T13:08:44.966Z,20.71
2023-10-11T13:09:46.735Z,20.76
2023-10-11T13:10:51.134Z,20.79
2023-10-11T13:11:58.084Z,20.73
2023-10-11T13:13:00.463Z,20.64
2023-10-11T13:14:07.015Z,20.61
2023-10-11T13:15:19.826Z,20.60
2023-10-11T13:16:28.796Z,20.59
2023-10-11T13:17:30.487Z,20.62
2023-10-11T13:18:42.026Z,20.54
2023-10-11T13:19:45.214Z,20.48
2023-10-11T13:20:47.260Z,20.41
2023-10-11T13:21:52.491Z,20.47
2023-10-11T13:22:54.093Z,20.45
2023-10-11T13:24:00.890Z,20.47
2023-10-11T13:25:03.883Z,20.48
2023-10-11T13:26:09.821Z,20.46
2023-10-11T13:27:11.436Z,20.47
2023-10-11T13:28:19.302Z,20.47
2023-10-11T13:29:22.294Z,20.55
2023-10-11T13:30:24.861Z,20.49
2023-10-11T13:31:29.600Z,20.38
2023-10-11T13:32:33.444Z,20.33
2023-10-11T13:33:37.109Z,20.44
2023-10-11T13:34:43.669Z,20.45
2023-10-11T13:35:45.304Z,20.39
2023-10-11T13:36:47.116Z,20.33
2023-10-11T13:37:48.684Z,20.36
2023-10-11T13:38:50.235Z,20.43
2023-10-11T13:39:51.889Z,20.46
2023-10-11T13:40:54.226Z,20.41
2023-10-11T13:42:05.404Z,20.34
2023-10-11T13:43:07.049Z,20.48
2023-10-11T13:44:11.643Z,20.47
2023-10-11T13:45:18.010Z,20.53
2023-10-11T13:46:19.825Z,20.53
2023-10-11T13:47:22.388Z,20.54
2023-10-11T13:48:28.495Z,20.61
2023-10-11T13:49:33.764Z,20.65
2023-10-11T13:50:38.863Z,20.69
2023-10-11T13:51:40.562Z,20.67
2023-10-11T13:52:42.196Z,20.65
2023-10-11T13:53:43.929Z,20.63
2023-10-11T13:54:52.586Z,20.65
2023-10-11T13:55:55.233Z,20.68
2023-10-11T13:56:56.830Z,20.75
2023-10-11T13:57:58.517Z,20.67
2023-10-11T13:59:00.674Z,20.72
2023-10-11T14:00:22.255Z,20.71
2023-10-11T14:01:43.728Z,20.61
2023-10-11T14:02:46.840Z,20.61
2023-10-11T14:03:57.688Z,20.64
2023-10-11T14:05:04.147Z,20.63
2023-10-11T14:06:32.511Z,20.72
2023-10-11T14:07:37.788Z,20.53
2023-10-11T14:08:45.286Z,20.53
2023-10-11T14:09:48.099Z,20.61
2023-10-11T14:10:49.891Z,20.66
2023-10-11T14:11:52.087Z,20.67
2023-10-11T14:12:57.232Z,20.67
2023-10-11T14:14:01.580Z,20.66
2023-10-11T14:15:09.146Z,20.72
2023-10-11T14:16:15.412Z,20.73
2023-10-11T14:17:17.294Z,20.77
2023-10-11T14:18:20.888Z,20.84